createdAt,value
2022-12-08T00:00:02.416Z,25.00
2022-12-08T00:01:06.568Z,42.35
2022-12-08T00:02:10.117Z,44.30
2022-12-08T00:03:14.325Z,38.10
2022-12-08T00:04:17.904Z,36.72
2022-12-08T00:05:38.665Z,46.65
2022-12-08T00:07:01.153Z,43.63
2022-12-08T00:08:22.168Z,38.00
2022-12-08T00:09:36.436Z,33.22
2022-12-08T00:10:51.044Z,37.05
2022-12-08T00:11:57.518Z,34.17
2022-12-08T00:12:59.874Z,48.38
2022-12-08T00:14:03.537Z,32.13
2022-12-08T00:15:07.093Z,35.80
2022-12-08T00:16:11.044Z,44.50
2022-12-08T00:17:16.680Z,36.47
2022-12-08T00:18:20.446Z,42.75
2022-12-08T00:19:24.525Z,39.72
2022-12-08T00:20:26.892Z,34.92
2022-12-08T00:21:30.811Z,44.70
2022-12-08T00:22:34.213Z,44.05
2022-12-08T00:23:36.585Z,42.08
2022-12-08T00:24:41.386Z,36.50
2022-12-08T00:25:43.747Z,43.57
2022-12-08T00:26:47.113Z,45.20
2022-12-08T00:27:49.429Z,44.25
2022-12-08T00:28:53.023Z,35.65
2022-12-08T00:29:55.579Z,44.63
2022-12-08T00:30:58.996Z,44.85
2022-12-08T00:32:02.612Z,41.20
2022-12-08T00:33:05.223Z,48.38
2022-12-08T00:34:10.311Z,34.08
2022-12-08T00:35:12.844Z,41.95
2022-12-08T00:36:16.544Z,47.57
2022-12-08T00:37:19.239Z,41.25
2022-12-08T00:38:22.758Z,46.70
2022-12-08T00:39:25.156Z,53.85
2022-12-08T00:40:28.966Z,34.95
2022-12-08T00:41:49.684Z,34.25
2022-12-08T00:42:53.103Z,48.20
2022-12-08T00:43:55.439Z,44.90
2022-12-08T00:44:59.053Z,46.40
2022-12-08T00:46:01.429Z,50.10
2022-12-08T00:47:04.913Z,36.50
2022-12-08T00:48:07.702Z,44.83
2022-12-08T00:49:13.046Z,50.47
2022-12-08T00:50:15.418Z,41.50
2022-12-08T00:51:18.783Z,42.20
2022-12-08T00:52:21.536Z,41.85
2022-12-08T00:53:25.111Z,45.85
2022-12-08T00:54:27.722Z,41.97
2022-12-08T00:55:31.089Z,41.97
2022-12-08T00:56:34.232Z,37.30
2022-12-08T00:57:37.665Z,46.23
2022-12-08T00:58:40.017Z,42.92
2022-12-08T00:59:43.421Z,43.28
2022-12-08T01:00:45.864Z,47.03
2022-12-08T01:01:50.028Z,36.75
2022-12-08T01:02:52.427Z,38.05
2022-12-08T01:03:55.851Z,46.30
2022-12-08T01:04:59.556Z,41.95
2022-12-08T01:06:04.543Z,42.88
2022-12-08T01:07:06.970Z,48.03
2022-12-08T01:08:10.938Z,44.17
2022-12-08T01:09:14.635Z,46.25
2022-12-08T01:10:18.771Z,45.65
2022-12-08T01:11:21.195Z,46.72
2022-12-08T01:12:24.654Z,47.42
2022-12-08T01:13:27.208Z,44.47
2022-12-08T01:14:30.603Z,50.20
2022-12-08T01:15:33.276Z,49.38
2022-12-08T01:16:38.259Z,48.40
2022-12-08T01:17:42.237Z,48.28
2022-12-08T01:18:44.662Z,48.73
2022-12-08T01:19:48.255Z,49.15
2022-12-08T01:20:52.010Z,53.63
2022-12-08T01:21:55.472Z,46.60
2022-12-08T01:22:57.801Z,42.72
2022-12-08T01:24:03.014Z,51.00
2022-12-08T01:25:06.807Z,49.58
2022-12-08T01:26:13.040Z,47.40
2022-12-08T01:27:16.247Z,48.85
2022-12-08T01:28:19.614Z,41.97
2022-12-08T01:29:23.109Z,47.77
2022-12-08T01:30:27.043Z,46.20
2022-12-08T01:31:29.699Z,41.20
2022-12-08T01:32:33.077Z,49.65
2022-12-08T01:33:35.388Z,48.75
2022-12-08T01:34:39.236Z,45.45
2022-12-08T01:35:41.585Z,38.47
2022-12-08T01:36:46.450Z,42.78
2022-12-08T01:37:50.532Z,38.55
2022-12-08T01:38:55.104Z,44.42
2022-12-08T01:39:57.415Z,39.30
2022-12-08T01:41:01.296Z,39.50
2022-12-08T01:42:04.885Z,48.85
2022-12-08T01:43:09.557Z,43.50
2022-12-08T01:45:04.482Z,36.55
2022-12-08T01:46:07.082Z,48.67
2022-12-08T01:47:10.894Z,45.53
2022-12-08T01:48:20.457Z,39.03
2022-12-08T01:49:26.506Z,38.10
2022-12-08T01:50:31.088Z,39.92
2022-12-08T01:51:38.859Z,45.53
2022-12-08T01:52:48.604Z,39.65
2022-12-08T01:53:51.320Z,36.47
2022-12-08T01:55:00.199Z,36.83
2022-12-08T01:56:10.323Z,37.08
2022-12-08T01:57:18.252Z,34.45
2022-12-08T01:58:26.377Z,38.90
2022-12-08T01:59:32.739Z,39.72
2022-12-08T02:00:35.174Z,41.83
2022-12-08T02:01:39.168Z,36.08
2022-12-08T02:02:53.834Z,36.77
2022-12-08T02:04:00.565Z,41.63
2022-12-08T02:05:05.191Z,38.85
2022-12-08T02:06:07.778Z,37.30
2022-12-08T02:07:13.944Z,38.33
2022-12-08T02:08:18.590Z,34.10
2022-12-08T02:09:22.861Z,41.30
2022-12-08T02:10:28.796Z,33.17
2022-12-08T02:11:32.128Z,37.80
2022-12-08T02:12:34.544Z,40.60
2022-12-08T02:13:38.314Z,42.23
2022-12-08T02:14:41.206Z,37.80
2022-12-08T02:15:59.339Z,42.80
2022-12-08T02:17:15.000Z,42.30
2022-12-08T02:18:33.334Z,36.08
2022-12-08T02:20:13.574Z,36.03
2022-12-08T02:21:21.978Z,37.88
2022-12-08T02:22:33.266Z,34.80
2022-12-08T02:23:48.631Z,36.55
2022-12-08T02:24:58.741Z,37.35
2022-12-08T02:26:34.802Z,36.30
2022-12-08T02:27:47.813Z,36.47
2022-12-08T02:29:26.480Z,39.22
2022-12-08T02:30:38.683Z,38.25
2022-12-08T02:31:55.865Z,33.50
2022-12-08T02:33:50.345Z,41.80
2022-12-08T02:35:00.044Z,34.42
2022-12-08T02:36:13.751Z,35.45
2022-12-08T02:37:23.433Z,35.70
2022-12-08T02:38:45.558Z,40.00
2022-12-08T02:39:58.505Z,35.53
2022-12-08T02:41:18.642Z,38.85
2022-12-08T02:42:27.957Z,39.67
2022-12-08T02:43:37.435Z,34.78
2022-12-08T02:44:44.099Z,38.03
2022-12-08T02:45:51.955Z,37.35
2022-12-08T02:46:59.994Z,39.25
2022-12-08T02:48:02.753Z,41.10
2022-12-08T02:49:07.092Z,37.72
2022-12-08T02:50:11.300Z,37.50
2022-12-08T02:51:14.715Z,42.83
2022-12-08T02:52:40.312Z,38.08
2022-12-08T02:53:44.742Z,43.97
2022-12-08T02:54:51.780Z,38.38
2022-12-08T02:56:01.779Z,42.67
2022-12-08T02:57:26.876Z,37.35
2022-12-08T02:59:04.354Z,38.50
2022-12-08T03:00:09.269Z,38.50
2022-12-08T03:01:29.310Z,36.83
2022-12-08T03:02:45.981Z,42.20
2022-12-08T03:03:54.996Z,40.03
2022-12-08T03:05:05.752Z,45.08
2022-12-08T03:06:22.904Z,40.38
2022-12-08T03:07:32.502Z,42.97
2022-12-08T03:08:43.166Z,36.17
2022-12-08T03:09:52.923Z,44.67
2022-12-08T03:11:03.692Z,39.35
2022-12-08T03:12:13.643Z,44.03
2022-12-08T03:13:20.903Z,41.47
2022-12-08T03:14:24.072Z,42.05
2022-12-08T03:15:27.985Z,42.53
2022-12-08T03:16:32.451Z,40.30
2022-12-08T03:17:38.552Z,37.42
2022-12-08T03:18:47.865Z,40.30
2022-12-08T03:19:51.544Z,41.08
2022-12-08T03:20:54.201Z,41.03
2022-12-08T03:22:03.399Z,40.75
2022-12-08T03:23:09.779Z,39.92
2022-12-08T03:24:14.422Z,36.95
2022-12-08T03:25:20.190Z,41.47
2022-12-08T03:26:30.376Z,44.80
2022-12-08T03:27:33.155Z,45.75
2022-12-08T03:28:36.584Z,43.45
2022-12-08T03:29:40.144Z,47.40
2022-12-08T03:30:45.177Z,45.55
2022-12-08T03:31:55.207Z,37.28
2022-12-08T03:33:07.339Z,47.28
2022-12-08T03:34:13.515Z,40.90
2022-12-08T03:35:18.422Z,43.83
2022-12-08T03:36:22.351Z,44.78
2022-12-08T03:37:27.808Z,45.57
2022-12-08T03:38:39.733Z,41.55
2022-12-08T03:39:42.466Z,43.15
2022-12-08T03:41:08.273Z,46.40
2022-12-08T03:42:10.919Z,37.50
2022-12-08T03:43:14.408Z,37.78
2022-12-08T03:44:16.715Z,39.38
2022-12-08T03:45:21.664Z,44.10
2022-12-08T03:47:29.151Z,41.17
2022-12-08T03:48:31.748Z,43.13
2022-12-08T03:49:35.195Z,42.75
2022-12-08T03:50:37.517Z,40.45
2022-12-08T03:51:41.015Z,41.08
2022-12-08T03:52:44.785Z,43.28
2022-12-08T03:53:48.822Z,40.38
2022-12-08T03:54:51.375Z,43.25
2022-12-08T03:55:55.601Z,46.80
2022-12-08T03:56:59.044Z,33.53
2022-12-08T03:58:01.393Z,43.00
2022-12-08T03:59:05.182Z,46.27
2022-12-08T04:00:09.641Z,38.47
2022-12-08T04:01:13.882Z,41.15
2022-12-08T04:02:17.387Z,44.95
2022-12-08T04:03:19.978Z,42.58
2022-12-08T04:04:23.704Z,37.65
2022-12-08T04:05:26.087Z,53.45
2022-12-08T04:06:29.669Z,41.20
2022-12-08T04:07:32.108Z,44.42
2022-12-08T04:08:37.030Z,39.47
2022-12-08T04:09:39.441Z,47.13
2022-12-08T04:10:42.817Z,38.55
2022-12-08T04:11:46.334Z,43.20
2022-12-08T04:12:48.671Z,40.33
2022-12-08T04:13:52.023Z,40.08
2022-12-08T04:14:54.528Z,46.45
2022-12-08T04:15:58.010Z,47.13
2022-12-08T04:17:00.465Z,42.28
2022-12-08T04:18:04.085Z,39.70
2022-12-08T04:19:07.870Z,43.75
2022-12-08T04:20:11.448Z,39.80
2022-12-08T04:21:15.451Z,41.72
2022-12-08T04:22:18.035Z,43.63
2022-12-08T04:23:21.539Z,41.22
2022-12-08T04:24:26.551Z,40.88
2022-12-08T04:25:29.126Z,37.13
2022-12-08T04:26:32.513Z,43.67
2022-12-08T04:27:34.994Z,47.05
2022-12-08T04:28:38.507Z,44.13
2022-12-08T04:29:41.104Z,44.67
2022-12-08T04:30:44.891Z,42.57
2022-12-08T04:31:47.259Z,42.03
2022-12-08T04:32:50.739Z,38.25
2022-12-08T04:33:54.096Z,41.92
2022-12-08T04:34:56.450Z,40.03
2022-12-08T04:36:00.141Z,38.22
2022-12-08T04:37:02.576Z,39.92
2022-12-08T04:38:06.392Z,39.55
2022-12-08T04:39:09.834Z,38.63
2022-12-08T04:40:14.888Z,40.28
2022-12-08T04:41:18.733Z,41.17
2022-12-08T04:42:22.675Z,43.70
2022-12-08T04:43:26.974Z,36.33
2022-12-08T04:44:29.566Z,43.55
2022-12-08T04:45:33.290Z,37.40
2022-12-08T04:46:42.986Z,38.15
2022-12-08T04:47:47.661Z,41.40
2022-12-08T04:48:51.163Z,36.88
2022-12-08T04:49:53.581Z,34.03
2022-12-08T04:50:57.468Z,35.38
2022-12-08T04:51:59.925Z,40.03
2022-12-08T04:53:03.515Z,37.90
2022-12-08T04:54:05.988Z,39.03
2022-12-08T04:55:10.063Z,44.55
2022-12-08T04:56:16.046Z,40.45
2022-12-08T04:57:18.359Z,40.00
2022-12-08T04:58:22.398Z,46.90
2022-12-08T04:59:24.762Z,42.80
2022-12-08T05:00:28.452Z,42.00
2022-12-08T05:01:30.864Z,40.35
2022-12-08T05:02:34.477Z,42.10
2022-12-08T05:03:38.349Z,38.08
2022-12-08T05:04:42.247Z,41.65
2022-12-08T05:05:44.974Z,41.42
2022-12-08T05:06:48.587Z,38.28
2022-12-08T05:07:51.026Z,41.13
2022-12-08T05:08:54.519Z,39.30
2022-12-08T05:09:56.838Z,40.95
2022-12-08T05:11:04.412Z,45.20
2022-12-08T05:12:08.634Z,39.20
2022-12-08T05:13:11.998Z,38.33
2022-12-08T05:14:15.659Z,37.42
2022-12-08T05:15:19.426Z,41.92
2022-12-08T05:16:23.064Z,46.10
2022-12-08T05:17:25.543Z,43.08
2022-12-08T05:18:29.001Z,36.35
2022-12-08T05:19:31.384Z,43.78
2022-12-08T05:20:34.948Z,41.90
2022-12-08T05:21:37.477Z,43.33
2022-12-08T05:22:40.862Z,39.80
2022-12-08T05:23:43.138Z,42.70
2022-12-08T05:24:47.800Z,41.40
2022-12-08T05:25:50.538Z,41.55
2022-12-08T05:26:53.905Z,42.30
2022-12-08T05:28:17.618Z,39.03
2022-12-08T05:29:21.281Z,42.80
2022-12-08T05:30:23.661Z,48.33
2022-12-08T05:31:27.090Z,48.55
2022-12-08T05:32:30.473Z,45.40
2022-12-08T05:33:32.770Z,41.75
2022-12-08T05:34:36.243Z,37.60
2022-12-08T05:35:38.966Z,41.55
2022-12-08T05:36:42.371Z,40.58
2022-12-08T05:37:44.943Z,42.92
2022-12-08T05:38:48.883Z,41.53
2022-12-08T05:39:51.223Z,41.55
2022-12-08T05:40:54.644Z,44.67
2022-12-08T05:41:56.977Z,42.63
2022-12-08T05:43:01.967Z,46.67
2022-12-08T05:44:04.390Z,44.45
2022-12-08T05:45:08.825Z,42.37
2022-12-08T05:46:11.640Z,40.15
2022-12-08T05:47:15.114Z,43.33
2022-12-08T05:48:17.409Z,42.88
2022-12-08T05:49:20.779Z,44.72
2022-12-08T05:50:23.134Z,44.22
2022-12-08T05:51:26.686Z,47.70
2022-12-08T05:52:29.037Z,44.72
2022-12-08T05:53:32.644Z,44.97
2022-12-08T05:54:34.973Z,50.28
2022-12-08T05:55:38.386Z,41.70
2022-12-08T05:56:40.901Z,42.42
2022-12-08T05:57:44.327Z,36.83
2022-12-08T05:58:48.955Z,47.42
2022-12-08T05:59:52.443Z,38.88
2022-12-08T06:00:54.836Z,43.15
2022-12-08T06:01:58.321Z,39.33
2022-12-08T06:03:01.177Z,37.33
2022-12-08T06:04:05.713Z,43.65
2022-12-08T06:05:08.672Z,42.10
2022-12-08T06:06:12.062Z,44.83
2022-12-08T06:07:16.259Z,38.45
2022-12-08T06:08:18.969Z,41.28
2022-12-08T06:09:22.508Z,41.42
2022-12-08T06:10:24.899Z,41.20
2022-12-08T06:11:31.105Z,44.65
2022-12-08T06:12:33.484Z,38.30
2022-12-08T06:13:36.989Z,42.75
2022-12-08T06:14:41.952Z,38.70
2022-12-08T06:15:44.257Z,46.88
2022-12-08T06:16:47.624Z,37.23
2022-12-08T06:17:50.046Z,41.90
2022-12-08T06:18:53.744Z,33.92
2022-12-08T06:19:57.127Z,44.08
2022-12-08T06:21:05.245Z,38.55
2022-12-08T06:22:07.680Z,36.83
2022-12-08T06:23:11.075Z,46.70
2022-12-08T06:24:14.510Z,47.38
2022-12-08T06:25:17.256Z,48.70
2022-12-08T06:26:21.281Z,46.72
2022-12-08T06:27:24.704Z,38.80
2022-12-08T06:28:27.124Z,45.00
2022-12-08T06:29:30.618Z,42.53
2022-12-08T06:30:34.475Z,46.03
2022-12-08T06:31:38.302Z,40.90
2022-12-08T06:32:40.906Z,40.00
2022-12-08T06:33:44.992Z,48.00
2022-12-08T06:34:48.354Z,45.90
2022-12-08T06:35:50.864Z,45.95
2022-12-08T06:36:54.453Z,47.67
2022-12-08T06:37:56.763Z,41.13
2022-12-08T06:39:00.391Z,46.33
2022-12-08T06:40:03.373Z,40.20
2022-12-08T06:41:07.661Z,44.22
2022-12-08T06:42:28.185Z,43.10
2022-12-08T06:43:31.558Z,42.10
2022-12-08T06:44:34.883Z,45.60
2022-12-08T06:45:42.635Z,40.90
2022-12-08T06:46:46.101Z,49.13
2022-12-08T06:47:48.412Z,40.63
2022-12-08T06:48:51.899Z,39.47
2022-12-08T06:49:54.245Z,52.78
2022-12-08T06:50:57.684Z,48.55
2022-12-08T06:52:00.365Z,45.60
2022-12-08T06:53:05.615Z,44.30
2022-12-08T06:54:08.452Z,45.90
2022-12-08T06:55:24.588Z,52.63
2022-12-08T06:56:35.326Z,45.50
2022-12-08T06:57:37.708Z,53.08
2022-12-08T06:58:41.326Z,53.05
2022-12-08T06:59:43.743Z,52.27
2022-12-08T07:00:48.931Z,44.58
2022-12-08T07:01:51.691Z,48.38
2022-12-08T07:02:55.158Z,49.58
2022-12-08T07:03:58.572Z,44.97
2022-12-08T07:05:00.947Z,43.40
2022-12-08T07:06:04.756Z,40.55
2022-12-08T07:07:08.211Z,44.20
2022-12-08T07:08:10.588Z,55.97
2022-12-08T07:09:14.015Z,47.53
2022-12-08T07:10:16.406Z,48.37
2022-12-08T07:11:22.226Z,51.47
2022-12-08T07:12:25.135Z,47.67
2022-12-08T07:13:28.514Z,49.13
2022-12-08T07:14:31.188Z,46.70
2022-12-08T07:15:34.563Z,50.03
2022-12-08T07:16:40.385Z,50.42
2022-12-08T07:17:42.805Z,50.58
2022-12-08T07:18:46.173Z,36.80
2022-12-08T07:19:48.525Z,49.83
2022-12-08T07:20:51.831Z,49.27
2022-12-08T07:21:54.167Z,44.22
2022-12-08T07:22:57.708Z,47.38
2022-12-08T07:24:00.284Z,49.05
2022-12-08T07:25:04.304Z,44.92
2022-12-08T07:26:09.580Z,50.22
2022-12-08T07:27:12.012Z,45.85
2022-12-08T07:28:15.512Z,46.95
2022-12-08T07:29:23.117Z,52.67
2022-12-08T07:30:28.720Z,49.60
2022-12-08T07:31:32.248Z,39.07
2022-12-08T07:32:37.226Z,47.25
2022-12-08T07:33:40.684Z,47.63
2022-12-08T07:34:43.173Z,40.65
2022-12-08T07:35:49.422Z,46.65
2022-12-08T07:36:51.941Z,45.75
2022-12-08T07:37:55.352Z,44.90
2022-12-08T07:38:57.742Z,48.97
2022-12-08T07:40:01.373Z,45.05
2022-12-08T07:41:04.879Z,46.63
2022-12-08T07:42:07.236Z,45.87
2022-12-08T07:43:10.733Z,42.22
2022-12-08T07:44:13.211Z,44.40
2022-12-08T07:45:16.664Z,47.08
2022-12-08T07:46:22.382Z,44.22
2022-12-08T07:47:26.181Z,43.50
2022-12-08T07:48:31.447Z,40.08
2022-12-08T07:49:33.843Z,42.83
2022-12-08T07:50:37.552Z,43.58
2022-12-08T07:51:40.018Z,42.88
2022-12-08T07:52:43.394Z,49.17
2022-12-08T07:53:53.431Z,38.00
2022-12-08T07:54:58.160Z,40.92
2022-12-08T07:56:00.626Z,41.17
2022-12-08T07:57:06.165Z,38.83
2022-12-08T07:58:08.942Z,40.58
2022-12-08T07:59:12.312Z,40.05
2022-12-08T08:00:15.870Z,41.40
2022-12-08T08:01:24.922Z,44.88
2022-12-08T08:02:27.398Z,44.95
2022-12-08T08:03:32.931Z,42.80
2022-12-08T08:04:35.384Z,39.10
2022-12-08T08:05:39.044Z,41.28
2022-12-08T08:06:42.451Z,38.83
2022-12-08T08:07:46.807Z,40.55
2022-12-08T08:08:50.218Z,34.50
2022-12-08T08:09:52.799Z,43.38
2022-12-08T08:10:56.417Z,37.25
2022-12-08T08:12:28.974Z,46.95
2022-12-08T08:13:23.318Z,39.60
2022-12-08T08:14:25.703Z,42.67
2022-12-08T08:15:29.532Z,43.55
2022-12-08T08:16:38.176Z,40.47
2022-12-08T08:17:41.088Z,27.45
2022-12-08T08:18:48.181Z,38.95
2022-12-08T08:19:51.687Z,41.30
2022-12-08T08:20:54.223Z,44.33
2022-12-08T08:21:57.565Z,38.95
2022-12-08T08:23:01.116Z,36.42
2022-12-08T08:24:03.488Z,38.42
2022-12-08T08:25:07.437Z,35.90
2022-12-08T08:26:10.888Z,36.53
2022-12-08T08:27:13.895Z,39.42
2022-12-08T08:28:17.523Z,32.75
2022-12-08T08:29:19.896Z,38.75
2022-12-08T08:30:23.318Z,40.53
2022-12-08T08:31:26.155Z,39.92
2022-12-08T08:32:29.547Z,38.35
2022-12-08T08:33:33.023Z,32.35
2022-12-08T08:34:38.173Z,34.47
2022-12-08T08:35:42.445Z,38.23
2022-12-08T08:36:44.930Z,36.83
2022-12-08T08:37:49.359Z,39.65
2022-12-08T08:38:52.569Z,40.38
2022-12-08T08:39:57.013Z,38.47
2022-12-08T08:41:03.020Z,40.20
2022-12-08T08:42:06.619Z,45.25
2022-12-08T08:43:10.314Z,36.85
2022-12-08T08:44:14.228Z,40.00
2022-12-08T08:45:17.689Z,34.78
2022-12-08T08:46:21.243Z,43.70
2022-12-08T08:47:25.035Z,31.83
2022-12-08T08:48:28.778Z,37.45
2022-12-08T08:49:32.325Z,39.08
2022-12-08T08:50:37.863Z,33.67
2022-12-08T08:51:41.429Z,33.08
2022-12-08T08:52:43.798Z,29.65
2022-12-08T08:53:47.423Z,37.13
2022-12-08T08:54:49.799Z,35.97
2022-12-08T08:55:53.571Z,35.05
2022-12-08T08:56:58.488Z,36.63
2022-12-08T08:58:00.815Z,34.05
2022-12-08T08:59:04.536Z,31.23
2022-12-08T09:00:10.269Z,27.60
2022-12-08T09:01:17.502Z,36.20
2022-12-08T09:02:21.706Z,32.33
2022-12-08T09:03:25.032Z,34.22
2022-12-08T09:04:27.645Z,36.33
2022-12-08T09:05:31.186Z,35.90
2022-12-08T09:06:35.032Z,32.33
2022-12-08T09:07:38.741Z,37.40
2022-12-08T09:08:42.527Z,40.00
2022-12-08T09:09:45.994Z,34.85
2022-12-08T09:10:48.368Z,31.65
2022-12-08T09:11:51.834Z,26.55
2022-12-08T09:12:55.246Z,34.47
2022-12-08T09:13:58.628Z,32.13
2022-12-08T09:15:01.120Z,38.72
2022-12-08T09:16:05.558Z,34.78
2022-12-08T09:17:09.368Z,38.60
2022-12-08T09:18:12.783Z,31.03
2022-12-08T09:19:16.351Z,32.40
2022-12-08T09:20:20.064Z,29.73
2022-12-08T09:21:24.172Z,39.25
2022-12-08T09:22:29.199Z,33.03
2022-12-08T09:23:35.558Z,28.00
2022-12-08T09:24:39.378Z,38.33
2022-12-08T09:25:44.996Z,36.38
2022-12-08T09:26:48.902Z,37.58
2022-12-08T09:27:52.327Z,34.13
2022-12-08T09:28:56.448Z,36.73
2022-12-08T09:30:00.113Z,38.50
2022-12-08T09:31:02.884Z,37.00
2022-12-08T09:32:06.863Z,40.83
2022-12-08T09:33:10.639Z,35.63
2022-12-08T09:34:13.100Z,32.63
2022-12-08T09:35:16.591Z,39.53
2022-12-08T09:36:19.110Z,35.47
2022-12-08T09:37:22.619Z,28.05
2022-12-08T09:38:26.386Z,31.40
2022-12-08T09:39:30.026Z,34.17
2022-12-08T09:40:37.529Z,35.97
2022-12-08T09:41:48.505Z,28.88
2022-12-08T09:42:57.236Z,35.15
2022-12-08T09:44:10.365Z,41.75
2022-12-08T09:45:15.781Z,41.33
2022-12-08T09:46:20.712Z,38.05
2022-12-08T09:47:33.738Z,41.40
2022-12-08T09:48:41.385Z,43.30
2022-12-08T09:49:51.900Z,45.65
2022-12-08T09:50:57.876Z,38.23
2022-12-08T09:52:01.968Z,41.10
2022-12-08T09:53:09.974Z,42.80
2022-12-08T09:54:20.747Z,47.38
2022-12-08T09:55:30.629Z,42.45
2022-12-08T09:56:37.488Z,40.72
2022-12-08T09:57:40.959Z,42.92
2022-12-08T09:58:52.043Z,42.53
2022-12-08T09:59:59.679Z,43.08
2022-12-08T10:01:03.165Z,47.00
2022-12-08T10:02:21.379Z,46.67
2022-12-08T10:03:28.486Z,45.50
2022-12-08T10:04:35.368Z,46.35
2022-12-08T10:05:42.324Z,46.60
2022-12-08T10:06:53.575Z,47.10
2022-12-08T10:08:09.153Z,39.55
2022-12-08T10:09:28.988Z,43.63
2022-12-08T10:10:39.537Z,42.50
2022-12-08T10:11:52.749Z,48.10
2022-12-08T10:12:59.457Z,46.10
2022-12-08T10:14:16.310Z,42.17
2022-12-08T10:15:35.158Z,43.05
2022-12-08T10:16:42.613Z,40.75
2022-12-08T10:17:49.699Z,45.28
2022-12-08T10:18:59.570Z,39.10
2022-12-08T10:20:08.045Z,45.17
2022-12-08T10:21:18.321Z,42.38
2022-12-08T10:22:23.655Z,44.03
2022-12-08T10:23:34.616Z,40.22
2022-12-08T10:24:43.600Z,40.65
2022-12-08T10:25:48.938Z,45.07
2022-12-08T10:26:51.559Z,44.80
2022-12-08T10:27:56.231Z,41.25
2022-12-08T10:29:02.783Z,37.25
2022-12-08T10:30:12.141Z,45.47
2022-12-08T10:31:20.888Z,43.13
2022-12-08T10:32:25.885Z,41.95
2022-12-08T10:33:29.509Z,44.70
2022-12-08T10:34:33.228Z,48.25
2022-12-08T10:35:45.243Z,43.80
2022-12-08T10:36:50.552Z,43.20
2022-12-08T10:37:58.608Z,46.63
2022-12-08T10:39:02.931Z,41.85
2022-12-08T10:40:14.143Z,41.97
2022-12-08T10:41:18.847Z,45.50
2022-12-08T10:42:23.767Z,43.38
2022-12-08T10:43:29.051Z,42.40
2022-12-08T10:44:32.453Z,43.78
2022-12-08T10:45:41.940Z,43.10
2022-12-08T10:46:45.618Z,41.17
2022-12-08T10:47:58.874Z,44.20
2022-12-08T10:49:13.237Z,46.53
2022-12-08T10:50:21.987Z,41.28
2022-12-08T10:51:40.179Z,50.33
2022-12-08T10:52:43.760Z,43.97
2022-12-08T10:53:48.659Z,47.53
2022-12-08T10:54:53.479Z,45.80
2022-12-08T10:56:15.633Z,44.10
2022-12-08T10:57:21.990Z,47.60
2022-12-08T10:58:31.840Z,45.33
2022-12-08T10:59:35.522Z,43.80
2022-12-08T11:00:40.907Z,43.20
2022-12-08T11:01:48.442Z,45.40
2022-12-08T11:02:55.873Z,44.67
2022-12-08T11:04:01.440Z,50.30
2022-12-08T11:05:03.948Z,46.80
2022-12-08T11:06:16.272Z,47.28
2022-12-08T11:07:24.211Z,47.78
2022-12-08T11:08:29.096Z,45.47
2022-12-08T11:09:41.043Z,41.53
2022-12-08T11:10:46.487Z,46.20
2022-12-08T11:11:53.063Z,46.60
2022-12-08T11:12:58.059Z,44.83
2022-12-08T11:14:08.756Z,46.38
2022-12-08T11:15:17.170Z,44.38
2022-12-08T11:16:21.624Z,47.35
2022-12-08T11:17:26.657Z,45.55
2022-12-08T11:18:32.434Z,48.08
2022-12-08T11:19:38.577Z,48.78
2022-12-08T11:20:43.143Z,47.30
2022-12-08T11:21:47.721Z,50.20
2022-12-08T11:22:53.552Z,47.78
2022-12-08T11:23:56.983Z,43.55
2022-12-08T11:25:12.203Z,49.92
2022-12-08T11:26:27.068Z,46.17
2022-12-08T11:27:32.950Z,48.70
2022-12-08T11:28:36.450Z,47.17
2022-12-08T11:29:39.057Z,49.15
2022-12-08T11:30:49.187Z,45.63
2022-12-08T11:31:56.240Z,47.65
2022-12-08T11:33:02.301Z,49.37
2022-12-08T11:34:07.651Z,47.05
2022-12-08T11:35:24.618Z,47.67
2022-12-08T11:36:30.650Z,52.83
2022-12-08T11:37:39.246Z,49.10
2022-12-08T11:38:45.628Z,48.83
2022-12-08T11:39:53.877Z,50.63
2022-12-08T11:41:00.890Z,48.90
2022-12-08T11:42:07.844Z,51.22
2022-12-08T11:43:17.962Z,52.03
2022-12-08T11:44:28.489Z,49.40
2022-12-08T11:45:36.248Z,50.00
2022-12-08T11:46:47.652Z,45.33
2022-12-08T11:48:00.330Z,47.22
2022-12-08T11:49:07.140Z,48.40
2022-12-08T11:50:21.075Z,48.17
2022-12-08T11:51:31.752Z,51.22
2022-12-08T11:52:45.389Z,48.35
2022-12-08T11:54:01.770Z,46.05
2022-12-08T11:55:18.748Z,45.20
2022-12-08T11:56:26.366Z,48.33
2022-12-08T11:57:31.423Z,46.25
2022-12-08T11:58:42.471Z,49.25
2022-12-08T11:59:49.726Z,48.85
2022-12-08T12:00:53.189Z,45.53
2022-12-08T12:01:56.963Z,49.53
2022-12-08T12:03:09.002Z,49.58
2022-12-08T12:04:21.109Z,54.45
2022-12-08T12:06:05.256Z,47.97
2022-12-08T12:07:26.604Z,50.78
2022-12-08T12:08:46.765Z,49.07
2022-12-08T12:10:23.777Z,48.85
2022-12-08T12:11:52.630Z,45.70
2022-12-08T12:13:11.538Z,49.13
2022-12-08T12:14:36.139Z,48.70
2022-12-08T12:16:09.264Z,46.17
2022-12-08T12:17:32.664Z,49.78
2022-12-08T12:18:41.309Z,43.95
2022-12-08T12:19:48.210Z,47.88
2022-12-08T12:20:55.654Z,44.72
2022-12-08T12:21:59.693Z,46.33
2022-12-08T12:23:06.746Z,46.45
2022-12-08T12:24:22.265Z,48.90
2022-12-08T12:25:29.455Z,47.70
2022-12-08T12:26:36.452Z,48.55
2022-12-08T12:27:41.686Z,43.80
2022-12-08T12:28:50.303Z,50.00
2022-12-08T12:29:59.481Z,50.50
2022-12-08T12:31:03.924Z,49.85
2022-12-08T12:32:10.075Z,49.33
2022-12-08T12:33:17.985Z,50.10
2022-12-08T12:34:25.473Z,49.72
2022-12-08T12:35:37.445Z,51.20
2022-12-08T12:36:49.641Z,51.63
2022-12-08T12:37:53.116Z,46.17
2022-12-08T12:39:03.305Z,47.65
2022-12-08T12:40:16.824Z,44.28
2022-12-08T12:41:25.607Z,50.65
2022-12-08T12:42:41.683Z,52.88
2022-12-08T12:44:10.423Z,43.13
2022-12-08T12:45:26.710Z,51.47
2022-12-08T12:46:42.072Z,48.42
2022-12-08T12:47:54.073Z,50.15
2022-12-08T12:49:48.824Z,47.90
2022-12-08T12:50:52.692Z,44.45
2022-12-08T12:51:55.642Z,46.80
2022-12-08T12:53:00.844Z,47.25
2022-12-08T12:54:22.678Z,50.33
2022-12-08T12:55:52.263Z,43.72
2022-12-08T12:56:56.816Z,44.65
2022-12-08T12:57:59.552Z,44.30
2022-12-08T12:59:23.656Z,49.45
2022-12-08T13:00:28.415Z,50.75
2022-12-08T13:01:55.628Z,48.17
2022-12-08T13:03:00.044Z,50.20
2022-12-08T13:04:06.056Z,49.83
2022-12-08T13:05:15.811Z,47.15
2022-12-08T13:06:24.409Z,46.67
2022-12-08T13:07:30.665Z,46.70
2022-12-08T13:08:34.990Z,47.80
2022-12-08T13:09:39.854Z,47.27
2022-12-08T13:10:57.363Z,45.97
2022-12-08T13:12:03.292Z,48.58
2022-12-08T13:13:17.571Z,45.58
2022-12-08T13:14:34.418Z,47.25
2022-12-08T13:15:41.751Z,47.85
2022-12-08T13:16:45.379Z,47.78
2022-12-08T13:17:50.873Z,52.00
2022-12-08T13:18:58.026Z,53.17
2022-12-08T13:20:04.844Z,48.38
2022-12-08T13:21:15.202Z,50.20
2022-12-08T13:22:55.459Z,47.22
2022-12-08T13:24:19.933Z,48.42
2022-12-08T13:25:49.392Z,45.22
2022-12-08T13:27:31.324Z,49.78
2022-12-08T13:28:34.722Z,46.38
2022-12-08T13:29:38.913Z,49.47
2022-12-08T13:30:44.703Z,49.45
2022-12-08T13:31:51.404Z,51.65
2022-12-08T13:34:27.480Z,47.33
2022-12-08T13:35:30.771Z,48.42
2022-12-08T13:36:38.220Z,55.70
2022-12-08T13:37:53.823Z,52.92
2022-12-08T13:39:00.095Z,49.70
2022-12-08T13:40:06.959Z,50.65
2022-12-08T13:41:16.655Z,50.95
2022-12-08T13:42:26.224Z,50.83
2022-12-08T13:43:51.049Z,48.15
2022-12-08T13:45:24.161Z,50.75
2022-12-08T13:48:23.847Z,52.35
2022-12-08T13:53:34.181Z,49.42
2022-12-08T13:56:51.426Z,50.55
2022-12-08T13:57:11.528Z,52.30
2022-12-08T13:58:19.680Z,58.42
2022-12-08T13:59:30.478Z,50.55
2022-12-08T14:00:34.022Z,55.40
2022-12-08T14:01:46.054Z,55.13
2022-12-08T14:02:51.502Z,51.38
2022-12-08T14:04:30.914Z,55.25
2022-12-08T14:05:41.081Z,55.97
2022-12-08T14:06:49.351Z,53.35
2022-12-08T14:07:55.625Z,57.13
2022-12-08T14:09:08.670Z,56.92
2022-12-08T14:10:21.166Z,57.90
2022-12-08T14:11:34.326Z,57.03
2022-12-08T14:12:38.739Z,55.47
2022-12-08T14:13:41.120Z,56.15
2022-12-08T14:15:03.093Z,54.17
2022-12-08T14:16:15.594Z,56.38
2022-12-08T14:17:22.139Z,54.88
2022-12-08T14:18:27.000Z,56.83
2022-12-08T14:19:32.067Z,57.63
2022-12-08T14:20:57.775Z,60.75
2022-12-08T14:22:02.393Z,80.32
2022-12-08T14:23:09.259Z,73.75
2022-12-08T14:24:13.363Z,63.67
2022-12-08T14:25:18.263Z,57.60
2022-12-08T14:26:20.711Z,50.83
2022-12-08T14:27:26.013Z,58.70
2022-12-08T14:28:29.864Z,61.72
2022-12-08T14:29:40.385Z,57.03